createdAt,value
2019-03-10T00:00:21.758Z,20.10
2019-03-10T00:02:50.187Z,17.23
2019-03-10T00:05:18.635Z,15.90
2019-03-10T00:07:47.125Z,19.57
2019-03-10T00:10:15.813Z,15.77
2019-03-10T00:12:44.234Z,12.50
2019-03-10T00:15:12.877Z,16.20
2019-03-10T00:17:41.548Z,15.27
2019-03-10T00:20:10.650Z,13.77
2019-03-10T00:22:39.044Z,13.93
2019-03-10T00:25:08.882Z,12.43
2019-03-10T00:27:37.254Z,17.80
2019-03-10T00:30:10.815Z,22.83
2019-03-10T00:32:39.389Z,17.00
2019-03-10T00:35:07.799Z,14.07
2019-03-10T00:37:37.150Z,11.13
2019-03-10T00:40:14.541Z,17.43
2019-03-10T00:42:55.021Z,15.87
2019-03-10T00:45:59.919Z,14.97
2019-03-10T00:48:52.763Z,12.37
2019-03-10T00:51:48.626Z,15.68
2019-03-10T00:54:17.015Z,17.60
2019-03-10T00:56:45.530Z,17.33
2019-03-10T00:59:13.946Z,17.37
2019-03-10T01:01:42.532Z,12.27
2019-03-10T01:04:10.882Z,18.17
2019-03-10T01:06:39.299Z,11.50
2019-03-10T01:09:07.709Z,19.67
2019-03-10T01:11:36.131Z,15.97
2019-03-10T01:14:04.513Z,15.77
2019-03-10T01:16:32.989Z,18.97
2019-03-10T01:19:01.430Z,19.87
2019-03-10T01:21:30.482Z,17.23
2019-03-10T01:23:59.142Z,17.23
2019-03-10T01:26:27.517Z,18.07
2019-03-10T01:28:55.887Z,11.37
2019-03-10T01:32:00.966Z,16.43
2019-03-10T01:34:45.486Z,18.20
2019-03-10T01:37:13.891Z,14.23
2019-03-10T01:39:42.269Z,18.20
2019-03-10T01:42:10.786Z,20.60
2019-03-10T01:44:39.201Z,15.87
2019-03-10T01:47:07.570Z,19.47
2019-03-10T01:49:36.025Z,25.77
2019-03-10T01:52:04.462Z,19.33
2019-03-10T01:54:32.867Z,18.40
2019-03-10T01:57:01.247Z,19.60
2019-03-10T01:59:29.659Z,18.83
2019-03-10T02:01:58.067Z,13.13
2019-03-10T02:04:26.613Z,14.30
2019-03-10T02:06:55.030Z,18.00
2019-03-10T02:09:23.450Z,21.40
2019-03-10T02:11:51.825Z,22.40
2019-03-10T02:14:20.261Z,15.97
2019-03-10T02:16:48.671Z,19.77
2019-03-10T02:19:17.083Z,18.93
2019-03-10T02:21:45.486Z,9.67
2019-03-10T02:24:23.349Z,17.93
2019-03-10T02:26:44.058Z,18.90
2019-03-10T02:29:12.548Z,11.67
2019-03-10T02:31:40.961Z,21.57
2019-03-10T02:34:09.344Z,10.67
2019-03-10T02:36:38.134Z,19.40
2019-03-10T02:39:07.019Z,15.73
2019-03-10T02:41:36.419Z,21.17
2019-03-10T02:44:04.846Z,14.33
2019-03-10T02:46:33.263Z,18.47
2019-03-10T02:49:01.649Z,17.87
2019-03-10T02:51:30.086Z,14.87
2019-03-10T02:53:58.458Z,19.07
2019-03-10T02:56:26.875Z,19.90
2019-03-10T02:58:55.299Z,21.43
2019-03-10T03:01:23.665Z,16.33
2019-03-10T03:03:52.250Z,24.77
2019-03-10T03:06:20.614Z,19.57
2019-03-10T03:08:49.007Z,13.30
2019-03-10T03:11:17.419Z,17.40
2019-03-10T03:13:45.890Z,20.00
2019-03-10T03:16:14.311Z,23.33
2019-03-10T03:18:42.775Z,21.83
2019-03-10T03:21:11.154Z,26.73
2019-03-10T03:23:39.631Z,22.07
2019-03-10T03:26:08.251Z,16.63
2019-03-10T03:28:36.689Z,20.07
2019-03-10T03:31:05.287Z,16.63
2019-03-10T03:33:33.713Z,19.87
2019-03-10T03:36:05.387Z,15.37
2019-03-10T03:38:40.269Z,21.20
2019-03-10T03:41:25.921Z,15.43
2019-03-10T03:43:54.505Z,17.70
2019-03-10T03:46:22.907Z,18.40
2019-03-10T03:48:51.318Z,11.33
2019-03-10T03:51:19.704Z,21.13
2019-03-10T03:53:48.146Z,20.73
2019-03-10T03:56:16.557Z,13.80
2019-03-10T03:58:44.941Z,16.47
2019-03-10T04:01:23.918Z,16.53
2019-03-10T04:03:52.294Z,19.13
2019-03-10T04:06:20.769Z,21.17
2019-03-10T04:08:49.319Z,19.43
2019-03-10T04:11:18.039Z,12.97
2019-03-10T04:13:46.423Z,18.47
2019-03-10T04:16:14.847Z,20.70
2019-03-10T04:18:43.322Z,25.17
2019-03-10T04:21:11.735Z,18.23
2019-03-10T04:23:40.114Z,16.77
2019-03-10T04:26:08.527Z,19.17
2019-03-10T04:28:37.057Z,17.87
2019-03-10T04:31:05.661Z,23.27
2019-03-10T04:33:34.061Z,15.73
2019-03-10T04:36:02.483Z,15.20
2019-03-10T04:38:30.865Z,18.07
2019-03-10T04:40:59.475Z,16.57
2019-03-10T04:43:27.860Z,14.57
2019-03-10T04:45:56.261Z,15.00
2019-03-10T04:48:24.649Z,17.30
2019-03-10T04:50:53.062Z,21.40
2019-03-10T04:53:21.463Z,24.17
2019-03-10T04:56:09.853Z,14.27
2019-03-10T04:58:39.890Z,21.57
2019-03-10T05:01:08.602Z,19.90
2019-03-10T05:03:36.966Z,21.90
2019-03-10T05:06:05.387Z,14.63
2019-03-10T05:08:33.786Z,23.27
2019-03-10T05:11:02.162Z,19.83
2019-03-10T05:13:30.630Z,13.33
2019-03-10T05:15:59.014Z,22.30
2019-03-10T05:18:27.437Z,26.27
2019-03-10T05:20:55.846Z,15.20
2019-03-10T05:23:32.607Z,16.80
2019-03-10T05:26:01.018Z,20.47
2019-03-10T05:28:31.573Z,17.33
2019-03-10T05:31:00.081Z,21.20
2019-03-10T05:33:28.499Z,15.70
2019-03-10T05:35:56.919Z,22.57
2019-03-10T05:38:25.319Z,14.83
2019-03-10T05:40:53.740Z,26.43
2019-03-10T05:43:22.254Z,21.40
2019-03-10T05:45:50.673Z,19.00
2019-03-10T05:48:19.091Z,19.00
2019-03-10T05:50:47.501Z,12.43
2019-03-10T05:53:15.894Z,21.87
2019-03-10T05:55:44.310Z,19.10
2019-03-10T05:58:12.694Z,24.10
2019-03-10T06:00:43.094Z,17.97
2019-03-10T06:03:11.290Z,26.10
2019-03-10T06:05:39.766Z,23.07
2019-03-10T06:08:08.237Z,14.53
2019-03-10T06:10:36.728Z,20.60
2019-03-10T06:13:05.138Z,22.40
2019-03-10T06:15:33.712Z,16.20
2019-03-10T06:18:12.796Z,18.47
2019-03-10T06:20:32.111Z,20.30
2019-03-10T06:23:00.579Z,18.13
2019-03-10T06:25:29.057Z,20.37
2019-03-10T06:27:57.595Z,13.47
2019-03-10T06:30:26.025Z,14.73
2019-03-10T06:32:54.430Z,24.33
2019-03-10T06:35:22.809Z,17.07
2019-03-10T06:37:51.556Z,17.43
2019-03-10T06:40:19.898Z,18.67
2019-03-10T06:42:48.273Z,16.27
2019-03-10T06:45:16.906Z,12.87
2019-03-10T06:47:45.448Z,22.83
2019-03-10T06:50:14.990Z,16.80
2019-03-10T06:52:43.449Z,17.27
2019-03-10T06:55:11.890Z,15.43
2019-03-10T06:57:40.341Z,13.67
2019-03-10T07:00:12.170Z,16.13
2019-03-10T07:02:40.593Z,19.40
2019-03-10T07:05:11.198Z,10.87
2019-03-10T07:07:39.612Z,12.93
2019-03-10T07:10:11.241Z,17.13
2019-03-10T07:12:39.667Z,18.17
2019-03-10T07:15:10.549Z,21.10
2019-03-10T07:17:39.092Z,15.10
2019-03-10T07:20:10.843Z,12.93
2019-03-10T07:22:39.202Z,19.73
2019-03-10T07:25:08.214Z,14.97
2019-03-10T07:27:41.176Z,14.20
2019-03-10T07:30:28.086Z,16.27
2019-03-10T07:33:07.295Z,13.27
2019-03-10T07:35:46.187Z,16.23
2019-03-10T07:38:28.343Z,12.80
2019-03-10T07:41:04.698Z,8.93
2019-03-10T07:43:52.696Z,14.20
2019-03-10T07:46:23.393Z,14.33
2019-03-10T07:48:53.378Z,10.73
2019-03-10T07:51:23.829Z,14.83
2019-03-10T07:53:59.828Z,13.47
2019-03-10T07:56:38.607Z,16.30
2019-03-10T07:59:17.454Z,10.43
2019-03-10T08:01:47.586Z,18.43
2019-03-10T08:04:17.693Z,8.97
2019-03-10T08:07:03.986Z,9.13
2019-03-10T08:09:46.035Z,11.77
2019-03-10T08:12:16.268Z,14.93
2019-03-10T08:15:02.479Z,13.73
2019-03-10T08:17:35.522Z,17.13
2019-03-10T08:20:06.723Z,10.17
2019-03-10T08:22:39.478Z,9.53
2019-03-10T08:27:42.522Z,14.33
2019-03-10T08:30:15.711Z,10.13
2019-03-10T08:32:51.759Z,9.03
2019-03-10T08:35:21.815Z,9.97
2019-03-10T08:37:51.895Z,7.10
2019-03-10T08:40:38.763Z,4.57
2019-03-10T08:43:08.815Z,5.87
2019-03-10T08:45:41.289Z,5.40
2019-03-10T08:48:11.874Z,7.83
2019-03-10T08:50:54.124Z,3.47
2019-03-10T08:53:30.219Z,5.25
2019-03-10T08:56:09.442Z,5.67
2019-03-10T08:58:39.654Z,7.37
2019-03-10T09:01:12.805Z,4.23
2019-03-10T09:03:42.827Z,6.80
2019-03-10T09:06:15.379Z,12.47
2019-03-10T09:08:45.427Z,6.22
2019-03-10T09:11:15.570Z,5.67
2019-03-10T09:13:45.606Z,6.57
2019-03-10T09:16:21.566Z,4.13
2019-03-10T09:19:03.569Z,5.20
2019-03-10T09:21:33.606Z,4.37
2019-03-10T09:24:19.745Z,4.23
2019-03-10T09:26:58.498Z,4.73
2019-03-10T09:29:31.623Z,7.83
2019-03-10T09:32:10.447Z,5.83
2019-03-10T09:34:55.763Z,1.83
2019-03-10T09:37:28.533Z,2.00
2019-03-10T09:42:44.489Z,4.10
2019-03-10T09:45:14.667Z,5.23
2019-03-10T09:47:44.654Z,4.53
2019-03-10T09:50:34.820Z,2.37
2019-03-10T09:53:12.709Z,5.47
2019-03-10T09:55:44.028Z,3.07
2019-03-10T09:58:26.042Z,2.50
2019-03-10T10:00:59.052Z,1.60
2019-03-10T10:03:29.285Z,3.30
2019-03-10T10:06:05.342Z,1.90
2019-03-10T10:08:35.418Z,2.47
2019-03-10T10:11:17.581Z,5.90
2019-03-10T10:13:53.809Z,1.72
2019-03-10T10:16:26.422Z,3.07
2019-03-10T10:18:56.433Z,2.80
2019-03-10T10:21:26.514Z,2.80
2019-03-10T10:24:02.611Z,1.60
2019-03-10T10:26:32.597Z,4.37
2019-03-10T10:29:02.745Z,1.73
2019-03-10T10:31:35.531Z,1.40
2019-03-10T10:36:53.853Z,3.53
2019-03-10T10:39:23.861Z,2.67
2019-03-10T10:41:59.489Z,1.20
2019-03-10T10:44:32.770Z,3.50
2019-03-10T10:47:08.647Z,2.60
2019-03-10T10:49:47.694Z,1.30
2019-03-10T10:52:30.030Z,6.00
2019-03-10T10:55:06.273Z,2.08
2019-03-10T10:57:40.671Z,0.67
2019-03-10T11:00:26.428Z,2.07
2019-03-10T11:03:14.816Z,2.60
2019-03-10T11:06:00.772Z,4.00
2019-03-10T11:08:48.746Z,1.50
2019-03-10T11:11:24.373Z,5.63
2019-03-10T11:13:54.438Z,1.67
2019-03-10T11:16:24.477Z,3.27
2019-03-10T11:19:09.859Z,1.30
2019-03-10T11:21:55.082Z,2.73
2019-03-10T11:24:25.186Z,2.20
2019-03-10T11:26:55.364Z,1.50
2019-03-10T11:29:25.449Z,1.70
2019-03-10T11:31:55.733Z,3.67
2019-03-10T11:34:34.854Z,2.93
2019-03-10T11:37:04.892Z,1.87
2019-03-10T11:39:40.707Z,3.33
2019-03-10T11:42:13.463Z,4.70
2019-03-10T11:47:15.492Z,5.13
2019-03-10T11:49:48.269Z,3.80
2019-03-10T11:55:06.067Z,5.63
2019-03-10T11:57:38.565Z,7.10
2019-03-10T12:00:17.485Z,5.12
2019-03-10T12:02:56.066Z,7.30
2019-03-10T12:05:26.124Z,8.80
2019-03-10T12:07:59.905Z,9.57
2019-03-10T12:10:28.295Z,7.10
2019-03-10T12:12:58.337Z,6.97
2019-03-10T12:15:26.801Z,8.20
2019-03-10T12:17:55.210Z,10.40
2019-03-10T12:20:24.279Z,5.23
2019-03-10T12:22:52.617Z,4.33
2019-03-10T12:25:21.036Z,6.97
2019-03-10T12:27:49.559Z,7.37
2019-03-10T12:30:17.997Z,10.97
2019-03-10T12:32:46.449Z,10.33
2019-03-10T12:35:14.846Z,8.23
2019-03-10T12:37:43.803Z,7.50
2019-03-10T12:40:12.884Z,7.57
2019-03-10T12:42:41.510Z,9.67
2019-03-10T12:45:11.236Z,13.50
2019-03-10T12:47:39.606Z,14.77
2019-03-10T12:50:14.465Z,6.60
2019-03-10T12:52:43.217Z,14.67
2019-03-10T12:55:11.655Z,9.23
2019-03-10T12:57:40.058Z,11.87
2019-03-10T13:00:14.303Z,12.97
2019-03-10T13:02:42.678Z,12.50
2019-03-10T13:05:12.251Z,7.47
2019-03-10T13:07:40.632Z,9.10
2019-03-10T13:10:09.037Z,8.10
2019-03-10T13:12:37.458Z,9.17
2019-03-10T13:15:10.999Z,14.87
2019-03-10T13:17:39.635Z,8.07
2019-03-10T13:20:10.252Z,6.90
2019-03-10T13:22:38.678Z,4.80
2019-03-10T13:25:11.659Z,6.97
2019-03-10T13:27:40.058Z,17.63
2019-03-10T13:30:13.598Z,17.10
2019-03-10T13:32:44.301Z,15.77
2019-03-10T13:35:12.046Z,17.63
2019-03-10T13:37:40.478Z,14.27
2019-03-10T13:40:13.875Z,11.63
2019-03-10T13:42:42.284Z,8.77
2019-03-10T13:45:13.717Z,23.37
2019-03-10T13:47:42.098Z,9.90
2019-03-10T13:50:12.855Z,7.40
2019-03-10T13:52:41.340Z,6.40
2019-03-10T13:55:10.205Z,6.70
2019-03-10T19:22:16.838Z,26.03
2019-03-10T19:24:45.270Z,34.50
2019-03-10T19:27:16.471Z,70.83
2019-03-10T19:29:45.233Z,22.47
2019-03-10T19:32:13.691Z,15.07
2019-03-10T19:34:42.133Z,21.63
2019-03-10T19:37:10.560Z,23.53
2019-03-10T19:39:39.049Z,18.27
2019-03-10T19:42:07.715Z,26.27
2019-03-10T19:44:36.111Z,20.53
2019-03-10T19:47:04.544Z,22.60
2019-03-10T19:49:33.145Z,19.47
2019-03-10T19:52:01.569Z,12.07
2019-03-10T19:54:29.993Z,9.63
2019-03-10T19:56:58.406Z,8.43
2019-03-10T19:59:28.092Z,8.53
2019-03-10T20:01:56.571Z,7.67
2019-03-10T20:04:24.970Z,6.43
2019-03-10T20:06:53.543Z,14.93
2019-03-10T20:09:22.310Z,17.63
2019-03-10T20:11:50.791Z,12.60
2019-03-10T20:14:19.369Z,21.97
2019-03-10T20:16:47.758Z,18.87
2019-03-10T20:19:16.428Z,30.87
2019-03-10T20:21:44.801Z,29.47
2019-03-10T20:24:13.290Z,29.73
2019-03-10T20:26:41.683Z,28.47
2019-03-10T20:29:10.090Z,20.27
2019-03-10T20:31:38.474Z,19.43
2019-03-10T20:34:06.917Z,21.33
2019-03-10T20:36:35.366Z,18.97
2019-03-10T20:39:04.863Z,16.50
2019-03-10T20:41:33.409Z,12.07
2019-03-10T20:44:03.675Z,17.23
2019-03-10T20:46:32.052Z,8.07
2019-03-10T20:49:00.571Z,14.70
2019-03-10T20:51:29.073Z,8.90
2019-03-10T20:53:57.690Z,9.73
2019-03-10T20:56:26.104Z,22.63
2019-03-10T20:58:54.519Z,19.43
2019-03-10T21:01:23.322Z,16.93
2019-03-10T21:03:51.837Z,17.70
2019-03-10T21:06:20.290Z,17.10
2019-03-10T21:08:48.682Z,15.80
2019-03-10T21:11:17.244Z,18.77
2019-03-10T21:13:45.931Z,18.30
2019-03-10T21:16:14.408Z,20.23
2019-03-10T21:18:44.115Z,20.20
2019-03-10T21:21:12.594Z,21.70
2019-03-10T21:23:42.711Z,21.63
2019-03-10T21:26:11.285Z,21.73
2019-03-10T21:28:39.839Z,18.60
2019-03-10T21:31:08.294Z,11.83
2019-03-10T21:33:36.727Z,10.77
2019-03-10T21:36:05.116Z,16.53
2019-03-10T21:38:33.548Z,11.37
2019-03-10T21:41:02.060Z,16.83
2019-03-10T21:43:30.501Z,13.93
2019-03-10T21:45:58.987Z,7.77
2019-03-10T21:48:27.470Z,12.63
2019-03-10T21:50:55.906Z,9.73
2019-03-10T21:53:24.287Z,15.67
2019-03-10T21:55:52.751Z,11.23
2019-03-10T21:58:21.142Z,10.00
2019-03-10T22:00:49.602Z,11.47
2019-03-10T22:03:18.015Z,7.77
2019-03-10T22:05:46.751Z,14.90
2019-03-10T22:08:15.131Z,10.93
2019-03-10T22:10:43.527Z,7.87
2019-03-10T22:13:11.979Z,5.47
2019-03-10T22:15:41.875Z,9.57
2019-03-10T22:18:10.543Z,6.67
2019-03-10T22:20:38.953Z,8.90
2019-03-10T22:23:07.334Z,11.03
2019-03-10T22:25:35.787Z,21.17
2019-03-10T22:28:04.201Z,49.23
2019-03-10T22:30:32.628Z,55.77
2019-03-10T22:33:01.107Z,45.23
2019-03-10T22:35:29.481Z,42.93
2019-03-10T22:37:57.943Z,42.07
2019-03-10T22:40:26.467Z,35.83
2019-03-10T22:42:54.839Z,34.40
2019-03-10T22:45:23.299Z,21.70
2019-03-10T22:47:51.778Z,19.27
2019-03-10T22:50:20.191Z,21.57
2019-03-10T22:52:48.607Z,28.87
2019-03-10T22:55:17.105Z,20.27
2019-03-10T22:57:45.501Z,22.77
2019-03-10T23:00:17.026Z,17.10
2019-03-10T23:02:45.426Z,12.93
2019-03-10T23:05:13.839Z,15.47
2019-03-10T23:07:42.261Z,12.63
2019-03-10T23:10:13.225Z,11.70
2019-03-10T23:12:41.610Z,10.37
2019-03-10T23:15:12.078Z,8.63
2019-03-10T23:17:40.477Z,12.87
2019-03-10T23:20:16.494Z,9.07
2019-03-10T23:22:44.971Z,13.93
2019-03-10T23:25:13.407Z,10.53
2019-03-10T23:27:41.906Z,10.57
2019-03-10T23:30:15.330Z,13.03
2019-03-10T23:32:43.773Z,9.70
2019-03-10T23:35:12.281Z,7.43
2019-03-10T23:37:40.691Z,7.53
2019-03-10T23:40:13.689Z,9.73
2019-03-10T23:42:42.116Z,9.57
2019-03-10T23:45:13.195Z,7.57
2019-03-10T23:47:41.816Z,9.50
2019-03-10T23:50:18.231Z,5.33
2019-03-10T23:52:46.857Z,7.00
2019-03-10T23:55:15.238Z,7.63
2019-03-10T23:57:43.620Z,7.70
